Time;durP1;ratioP1;P1;durP2;ratioP2;P2;SDS_P1;SDS_P2;PMS_P1;PMS_P2;Temp;Humidity;BMP_temperature;BMP_pressure;BME280_temperature;BME280_humidity;BME280_pressure;Samples;Min_cycle;Max_cycle;Signal;HPM_P1;HPM_P2
2022/09/08 00:00:07;;;;;;;6.30;3.85;;;26.00;49.00;;;;;;5011744;28;20405;-67
2022/09/08 00:02:37;;;;;;;6.55;3.70;;;26.00;49.10;;;;;;5010641;28;20109;-66
2022/09/08 00:05:05;;;;;;;9.45;4.38;;;26.00;49.10;;;;;;5009571;28;20046;-67
2022/09/08 00:07:32;;;;;;;8.13;4.13;;;26.00;49.20;;;;;;5011761;28;20048;-67
2022/09/08 00:09:58;;;;;;;9.52;4.30;;;25.90;48.90;;;;;;5012015;28;20479;-67
2022/09/08 00:12:25;;;;;;;16.48;4.68;;;25.90;48.90;;;;;;5012247;28;20375;-67
2022/09/08 00:14:52;;;;;;;7.05;4.55;;;26.00;49.40;;;;;;5012515;28;20042;-67
2022/09/08 00:17:19;;;;;;;7.13;4.50;;;25.90;49.10;;;;;;5013176;28;20042;-67
2022/09/08 00:19:45;;;;;;;10.40;4.57;;;25.90;49.10;;;;;;5031460;28;20116;-67
2022/09/08 00:22:11;;;;;;;8.27;4.70;;;25.90;49.10;;;;;;5025493;28;20033;-67
2022/09/08 00:24:37;;;;;;;5.72;3.85;;;26.10;49.40;;;;;;5011724;28;20064;-66
2022/09/08 00:27:03;;;;;;;7.40;4.57;;;25.90;49.00;;;;;;5011760;28;20117;-67
2022/09/08 00:29:29;;;;;;;6.82;4.68;;;26.10;49.50;;;;;;5012982;28;20117;-67
2022/09/08 00:31:55;;;;;;;5.32;3.95;;;26.10;49.40;;;;;;5031234;28;20395;-67
2022/09/08 00:34:22;;;;;;;5.20;4.30;;;26.00;49.30;;;;;;5030922;28;20025;-67
2022/09/08 00:36:48;;;;;;;5.25;4.35;;;26.10;49.20;;;;;;5029529;28;20026;-67
2022/09/08 00:39:15;;;;;;;8.10;4.43;;;26.10;49.20;;;;;;5030073;28;20116;-67
2022/09/08 00:41:42;;;;;;;4.63;4.07;;;26.00;49.30;;;;;;5032992;28;20091;-66
2022/09/08 00:44:38;;;;;;;7.65;4.78;;;26.00;49.40;;;;;;5035456;28;20037;-67
2022/09/08 00:47:26;;;;;;;10.00;4.43;;;25.90;49.00;;;;;;5033794;28;20037;-68
2022/09/08 00:50:09;;;;;;;6.10;4.57;;;26.00;49.50;;;;;;5034738;28;20497;-67
2022/09/08 00:52:41;;;;;;;6.53;4.25;;;26.00;49.50;;;;;;5035288;28;20049;-67
2022/09/08 00:55:09;;;;;;;7.68;4.57;;;25.90;49.10;;;;;;5035050;28;20514;-67
2022/09/08 00:57:35;;;;;;;6.63;4.50;;;25.90;49.10;;;;;;5034978;28;20041;-67
2022/09/08 01:00:04;;;;;;;11.75;4.65;;;25.90;49.20;;;;;;5035281;28;20076;-67
2022/09/08 01:02:30;;;;;;;8.50;4.05;;;25.80;49.20;;;;;;5035111;28;20033;-67
2022/09/08 01:05:04;;;;;;;6.35;4.43;;;25.80;49.30;;;;;;5033622;28;20045;-66
2022/09/08 01:13:46;;;;;;;6.35;4.07;;;25.90;49.50;;;;;;5014578;28;20100;-67
2022/09/08 01:16:12;;;;;;;6.53;4.47;;;25.80;49.60;;;;;;5014225;28;20475;-66
2022/09/08 01:18:38;;;;;;;7.25;4.57;;;25.90;49.60;;;;;;5014770;28;20076;-67
2022/09/08 01:21:26;;;;;;;5.90;4.07;;;25.80;49.50;;;;;;5014474;28;20049;-67
2022/09/08 01:24:01;;;;;;;6.60;4.68;;;25.80;49.60;;;;;;5014697;28;20048;-66
2022/09/08 01:26:45;;;;;;;9.18;4.55;;;25.80;49.60;;;;;;5014293;28;20038;-67
2022/09/08 01:29:14;;;;;;;8.38;4.57;;;25.80;49.60;;;;;;5013068;28;20121;-68
2022/09/08 01:31:43;;;;;;;8.10;4.75;;;25.80;49.60;;;;;;5012899;28;20049;-67
2022/09/08 01:34:10;;;;;;;6.43;4.50;;;25.90;49.70;;;;;;5014211;28;20056;-67
2022/09/08 01:36:36;;;;;;;6.18;4.30;;;25.80;49.70;;;;;;5014087;28;20034;-67
2022/09/08 01:39:02;;;;;;;6.55;4.03;;;25.70;49.60;;;;;;5013942;28;20087;-67
2022/09/08 01:41:28;;;;;;;7.35;4.55;;;25.90;49.60;;;;;;5013382;28;20410;-67
2022/09/08 01:43:54;;;;;;;7.07;4.55;;;25.80;49.60;;;;;;5013796;28;20033;-68
2022/09/08 01:46:20;;;;;;;7.00;4.63;;;25.70;49.60;;;;;;5013671;28;20107;-67
2022/09/08 01:48:46;;;;;;;8.63;4.90;;;25.70;49.60;;;;;;5013944;28;20509;-67
2022/09/08 01:51:12;;;;;;;11.48;4.85;;;25.60;49.70;;;;;;5013491;28;20065;-67
2022/09/08 01:53:38;;;;;;;7.05;4.82;;;25.70;49.80;;;;;;5013784;28;20069;-67
2022/09/08 01:56:05;;;;;;;7.63;4.78;;;25.70;49.70;;;;;;5013522;28;20636;-67
2022/09/08 01:58:32;;;;;;;12.48;4.70;;;25.60;49.70;;;;;;5012952;28;20378;-67
2022/09/08 02:00:58;;;;;;;8.48;4.47;;;25.60;49.70;;;;;;5013027;28;20038;-67
2022/09/08 02:03:25;;;;;;;7.32;4.78;;;25.60;49.80;;;;;;5014227;28;20045;-68
2022/09/08 02:05:52;;;;;;;8.02;4.60;;;25.70;49.90;;;;;;5013998;28;20129;-66
2022/09/08 02:08:18;;;;;;;6.10;4.53;;;25.70;49.90;;;;;;5016418;28;20048;-66
2022/09/08 02:10:53;;;;;;;7.35;4.78;;;25.60;50.00;;;;;;5014628;28;20038;-67
2022/09/08 02:13:19;;;;;;;6.30;4.47;;;25.60;49.90;;;;;;5022026;28;20034;-67
2022/09/08 02:15:45;;;;;;;7.88;4.50;;;25.60;49.90;;;;;;5033474;28;20052;-67
2022/09/08 02:18:12;;;;;;;8.13;4.97;;;25.60;49.90;;;;;;5033620;28;20030;-67
2022/09/08 02:20:37;;;;;;;7.30;4.85;;;25.70;49.80;;;;;;5033524;28;20064;-67
2022/09/08 02:23:03;;;;;;;6.53;4.93;;;25.70;49.80;;;;;;5032300;28;20050;-68
2022/09/08 02:25:29;;;;;;;5.72;4.50;;;25.80;49.80;;;;;;5025282;28;20037;-67
2022/09/08 02:27:55;;;;;;;8.55;4.65;;;25.80;49.90;;;;;;5013218;28;20037;-67
2022/09/08 02:30:22;;;;;;;7.35;4.05;;;25.70;49.90;;;;;;5027698;28;20038;-67
2022/09/08 02:32:49;;;;;;;6.70;5.20;;;25.80;49.90;;;;;;5013695;28;20061;-68
2022/09/08 02:35:16;;;;;;;8.30;4.95;;;25.60;49.90;;;;;;5011139;28;20048;-66
2022/09/08 02:37:42;;;;;;;10.85;4.70;;;25.70;49.80;;;;;;5013363;28;20095;-67
2022/09/08 02:40:09;;;;;;;6.88;4.70;;;25.60;49.80;;;;;;5011081;28;20038;-67
2022/09/08 02:42:36;;;;;;;5.55;4.32;;;25.70;49.90;;;;;;5013533;28;20451;-67
2022/09/08 02:45:02;;;;;;;6.57;5.03;;;25.70;49.90;;;;;;4995968;28;20087;-67
2022/09/08 02:47:31;;;;;;;9.93;4.97;;;25.70;49.80;;;;;;5010722;28;20507;-67
2022/09/08 02:49:57;;;;;;;12.05;4.78;;;25.60;49.90;;;;;;5013153;28;20033;-67
2022/09/08 02:52:23;;;;;;;9.25;4.60;;;25.70;49.90;;;;;;5010675;28;20122;-67
2022/09/08 02:54:49;;;;;;;6.93;5.00;;;25.70;49.90;;;;;;5010839;28;20050;-69
2022/09/08 02:57:15;;;;;;;6.70;4.80;;;25.60;49.90;;;;;;5012943;28;20045;-67
2022/09/08 02:59:41;;;;;;;10.02;5.20;;;25.60;50.00;;;;;;5013061;28;20137;-67
2022/09/08 03:02:07;;;;;;;7.40;4.70;;;25.50;50.10;;;;;;5021773;28;20513;-67
2022/09/08 03:04:33;;;;;;;10.90;5.20;;;25.50;50.20;;;;;;5025608;28;20038;-67
2022/09/08 03:06:59;;;;;;;8.57;5.50;;;25.50;50.20;;;;;;5012982;28;20044;-67
2022/09/08 03:09:25;;;;;;;8.52;4.95;;;25.50;50.20;;;;;;5012778;28;20049;-67
2022/09/08 03:11:51;;;;;;;9.02;5.45;;;25.60;50.20;;;;;;4994103;28;20038;-67
2022/09/08 03:14:17;;;;;;;5.93;5.25;;;25.60;50.20;;;;;;5012685;28;20166;-67
2022/09/08 03:16:45;;;;;;;7.40;5.22;;;25.60;50.20;;;;;;5012665;28;20038;-67
2022/09/08 03:19:11;;;;;;;10.93;5.10;;;25.60;50.20;;;;;;5011134;28;20049;-67
2022/09/08 03:21:38;;;;;;;15.45;5.22;;;25.50;50.20;;;;;;5012740;28;20435;-67
2022/09/08 03:24:04;;;;;;;9.32;5.00;;;25.60;50.20;;;;;;5012670;28;20040;-66
2022/09/08 03:26:30;;;;;;;7.65;5.57;;;25.60;50.20;;;;;;5012444;28;20092;-67
2022/09/08 03:28:56;;;;;;;6.72;4.78;;;25.50;50.20;;;;;;5011411;28;20045;-66
2022/09/08 03:31:22;;;;;;;6.18;4.50;;;25.70;50.20;;;;;;5012282;28;20029;-67
2022/09/08 03:33:48;;;;;;;8.30;5.10;;;25.50;50.10;;;;;;5012270;28;20042;-67
2022/09/08 03:36:16;;;;;;;9.60;5.40;;;25.70;50.00;;;;;;5012332;28;20095;-67
2022/09/08 03:38:43;;;;;;;8.38;5.20;;;25.60;49.90;;;;;;5011194;28;20034;-67
2022/09/08 03:41:13;;;;;;;14.93;5.22;;;25.70;49.80;;;;;;5012264;28;20129;-66
2022/09/08 03:43:47;;;;;;;11.52;5.28;;;25.80;49.70;;;;;;5012346;28;20038;-67
2022/09/08 03:46:14;;;;;;;8.70;5.32;;;25.60;49.80;;;;;;5012040;28;20056;-67
2022/09/08 03:48:41;;;;;;;6.30;4.43;;;25.60;49.80;;;;;;5012295;28;20040;-67
2022/09/08 03:51:24;;;;;;;11.40;5.53;;;25.70;49.80;;;;;;5012070;28;20502;-66
2022/09/08 03:53:50;;;;;;;;;;;25.70;49.90;;;;;;5011388;28;20446;-67
2022/09/08 03:56:16;;;;;;;8.07;4.75;;;25.60;50.10;;;;;;5009487;28;19913;-67
2022/09/08 03:58:43;;;;;;;6.57;3.90;;;25.50;50.20;;;;;;5011755;28;20107;-66
2022/09/08 04:01:14;;;;;;;8.18;4.53;;;25.60;50.10;;;;;;5012341;28;20114;-67
2022/09/08 04:03:40;;;;;;;4.43;3.97;;;25.80;49.80;;;;;;5028043;28;20045;-68
2022/09/08 04:06:07;;;;;;;7.40;3.63;;;25.80;49.50;;;;;;5011271;28;20483;-67
2022/09/08 04:08:33;;;;;;;8.50;4.97;;;25.80;49.20;;;;;;5019510;28;20045;-67
2022/09/08 04:10:59;;;;;;;5.88;4.38;;;25.90;49.10;;;;;;5031569;28;20042;-66
2022/09/08 04:13:26;;;;;;;9.10;4.90;;;25.90;48.90;;;;;;5045508;28;20041;-67
2022/09/08 04:15:53;;;;;;;7.00;4.95;;;25.90;50.80;;;;;;5031788;28;20037;-66
2022/09/08 04:18:19;;;;;;;6.15;4.43;;;26.10;52.00;;;;;;5031166;28;20037;-67
2022/09/08 04:20:45;;;;;;;10.65;4.80;;;26.40;53.10;;;;;;5023022;28;20030;-66
2022/09/08 04:23:12;;;;;;;10.18;4.90;;;26.50;54.50;;;;;;5009379;28;20065;-68
2022/09/08 04:25:39;;;;;;;7.95;5.07;;;26.60;54.50;;;;;;5011577;28;20037;-68
2022/09/08 04:28:05;;;;;;;8.88;5.07;;;26.60;50.30;;;;;;5009941;28;20483;-68
2022/09/08 04:30:31;;;;;;;9.23;5.05;;;26.50;49.20;;;;;;5011709;28;20041;-66
2022/09/08 04:32:57;;;;;;;14.63;5.03;;;26.70;49.00;;;;;;5011662;28;20033;-67
2022/09/08 04:35:23;;;;;;;12.73;5.35;;;26.50;48.60;;;;;;5011378;28;20380;-66
2022/09/08 04:37:49;;;;;;;9.00;4.65;;;26.50;48.30;;;;;;5011570;28;20030;-66
2022/09/08 04:40:15;;;;;;;10.90;5.07;;;26.50;48.00;;;;;;5011255;28;20038;-68
2022/09/08 04:42:42;;;;;;;8.27;4.88;;;26.50;47.70;;;;;;5011370;28;20030;-67
2022/09/08 04:45:08;;;;;;;5.90;4.53;;;26.60;47.40;;;;;;5010095;28;20034;-66
2022/09/08 04:47:34;;;;;;;12.90;4.97;;;26.60;47.20;;;;;;5011585;28;20038;-67
2022/09/08 04:50:00;;;;;;;7.88;4.93;;;26.60;47.00;;;;;;5011396;28;20394;-66
2022/09/08 04:52:26;;;;;;;6.25;4.57;;;26.70;46.80;;;;;;5011116;28;20046;-66
2022/09/08 04:54:52;;;;;;;8.38;4.85;;;26.50;46.70;;;;;;5011147;28;20041;-66
2022/09/08 04:57:20;;;;;;;8.45;5.63;;;26.60;46.60;;;;;;5019972;28;20041;-65
2022/09/08 04:59:46;;;;;;;7.72;4.93;;;26.70;46.40;;;;;;5024691;28;20042;-66
2022/09/08 05:02:13;;;;;;;9.95;5.70;;;26.60;46.20;;;;;;5011105;28;20048;-67
2022/09/08 05:04:39;;;;;;;8.63;4.97;;;26.70;46.10;;;;;;5011339;28;20034;-68
2022/09/08 05:07:05;;;;;;;11.20;5.53;;;26.70;45.80;;;;;;5011690;28;20100;-67
2022/09/08 05:09:31;;;;;;;8.20;5.60;;;26.70;45.90;;;;;;5008780;28;20042;-67
2022/09/08 05:11:57;;;;;;;7.50;4.97;;;26.60;46.00;;;;;;5011536;28;20063;-68
2022/09/08 05:14:23;;;;;;;8.50;5.15;;;26.60;46.20;;;;;;5011075;28;20115;-66
2022/09/08 05:16:49;;;;;;;11.20;5.35;;;26.70;46.30;;;;;;5011292;28;20049;-66
2022/09/08 05:19:15;;;;;;;11.05;6.00;;;26.50;46.40;;;;;;5009700;28;20038;-66
2022/09/08 05:21:41;;;;;;;16.92;5.93;;;26.60;46.40;;;;;;5010365;28;20521;-68
2022/09/08 05:24:07;;;;;;;12.48;5.63;;;26.80;46.50;;;;;;5009025;28;20037;-67
2022/09/08 05:26:33;;;;;;;14.43;6.07;;;26.70;46.50;;;;;;5010426;28;20037;-68
2022/09/08 05:29:02;;;;;;;11.38;4.55;;;26.60;46.30;;;;;;5013841;28;20359;-67
2022/09/08 05:31:29;;;;;;;10.00;3.35;;;26.70;46.60;;;;;;5011720;28;20650;-68
2022/09/08 05:33:57;;;;;;;3.35;1.45;;;26.80;48.00;;;;;;5012540;28;20030;-68
2022/09/08 05:36:26;;;;;;;3.63;2.75;;;26.70;48.40;;;;;;5013320;28;20132;-69
2022/09/08 05:38:52;;;;;;;13.48;5.88;;;27.00;55.80;;;;;;5010991;28;20033;-67
2022/09/08 05:41:19;;;;;;;11.93;6.78;;;27.00;53.60;;;;;;5008386;28;20338;-68
2022/09/08 05:43:45;;;;;;;12.88;6.35;;;27.10;49.90;;;;;;4994866;28;20156;-68
2022/09/08 05:46:11;;;;;;;12.85;7.22;;;27.00;49.80;;;;;;4994773;28;20035;-69
2022/09/08 05:48:37;;;;;;;17.50;6.20;;;27.00;49.80;;;;;;5008587;28;20048;-68
2022/09/08 05:51:09;;;;;;;10.68;4.45;;;27.00;48.90;;;;;;5013102;28;20475;-67
2022/09/08 05:53:37;;;;;;;10.10;6.38;;;26.90;51.40;;;;;;5011956;28;20030;-68
2022/09/08 05:56:07;;;;;;;4.05;3.03;;;27.30;50.00;;;;;;5012949;28;20529;-69
2022/09/08 05:58:33;;;;;;;8.77;5.90;;;27.40;49.80;;;;;;5013248;28;20438;-66
2022/09/08 06:01:13;;;;;;;9.70;6.20;;;27.40;50.60;;;;;;5029536;28;20065;-68
2022/09/08 06:03:39;;;;;;;9.05;6.30;;;27.20;48.00;;;;;;5011880;28;20037;-67
2022/09/08 06:06:10;;;;;;;10.50;5.97;;;27.20;47.20;;;;;;5012607;28;20103;-69
2022/09/08 06:08:38;;;;;;;8.13;6.07;;;27.10;47.20;;;;;;5012510;28;20021;-69
2022/09/08 06:11:05;;;;;;;7.25;4.55;;;27.20;47.30;;;;;;5012722;28;20030;-71
2022/09/08 06:13:32;;;;;;;8.40;5.22;;;27.20;47.20;;;;;;5011083;28;20033;-71
2022/09/08 06:16:08;;;;;;;8.20;5.82;;;27.20;47.50;;;;;;5009229;28;20025;-71
2022/09/08 06:18:35;;;;;;;11.60;5.07;;;27.20;47.60;;;;;;5007795;28;20030;-70
2022/09/08 06:21:06;;;;;;;8.95;5.13;;;27.10;47.70;;;;;;5009821;28;20042;-70
2022/09/08 06:23:32;;;;;;;10.07;5.18;;;27.10;47.80;;;;;;5009826;28;20530;-71
2022/09/08 06:26:14;;;;;;;10.30;4.28;;;27.00;47.90;;;;;;5009222;28;20030;-69
2022/09/08 06:29:15;;;;;;;7.43;4.88;;;27.20;48.10;;;;;;5009682;28;20041;-69
2022/09/08 06:31:50;;;;;;;9.13;4.18;;;27.20;48.80;;;;;;4968266;28;20503;-72
2022/09/08 06:34:25;;;;;;;7.63;5.10;;;27.30;48.90;;;;;;4968783;28;20103;-70
2022/09/08 06:36:53;;;;;;;7.32;4.07;;;27.10;49.10;;;;;;4939111;28;20555;-69
2022/09/08 06:39:40;;;;;;;6.47;4.00;;;27.10;49.50;;;;;;4967192;28;20043;-67
2022/09/08 06:42:19;;;;;;;9.43;4.50;;;27.10;49.70;;;;;;4967313;28;20046;-69
2022/09/08 06:44:51;;;;;;;5.88;4.90;;;27.00;49.50;;;;;;4967400;28;20039;-70
2022/09/08 06:47:22;;;;;;;6.07;4.60;;;27.00;49.70;;;;;;4943034;28;20047;-69
2022/09/08 06:49:51;;;;;;;8.95;4.57;;;27.00;49.10;;;;;;4954472;28;20046;-70
2022/09/08 06:52:42;;;;;;;6.50;4.00;;;27.00;48.80;;;;;;4970659;28;20043;-70
2022/09/08 06:55:32;;;;;;;5.97;3.65;;;27.00;48.40;;;;;;4969780;28;20107;-70
2022/09/08 06:58:36;;;;;;;5.95;3.47;;;27.00;48.30;;;;;;4969758;28;20047;-68
2022/09/08 07:01:24;;;;;;;4.55;3.50;;;26.90;47.50;;;;;;4932130;29;20066;-69
2022/09/08 07:04:15;;;;;;;5.32;3.38;;;27.00;48.30;;;;;;4932478;29;20595;-70
2022/09/08 07:07:02;;;;;;;5.20;3.42;;;26.80;47.70;;;;;;4932729;29;20127;-70
2022/09/08 07:09:57;;;;;;;6.20;4.05;;;26.90;47.50;;;;;;4987957;28;20048;-72
2022/09/08 07:12:44;;;;;;;4.30;3.25;;;27.00;47.80;;;;;;4951875;29;20439;-69
2022/09/08 07:15:33;;;;;;;5.70;3.53;;;27.10;47.70;;;;;;4951431;29;20062;-70
2022/09/08 07:18:22;;;;;;;4.40;3.55;;;27.10;47.50;;;;;;4951988;29;20142;-70
2022/09/08 07:20:48;;;;;;;4.63;3.08;;;27.00;47.30;;;;;;4951853;29;20476;-71
2022/09/08 07:23:24;;;;;;;4.15;3.65;;;27.00;47.20;;;;;;4951878;29;20054;-69
2022/09/08 07:26:02;;;;;;;3.60;3.13;;;27.10;47.00;;;;;;4951895;29;20532;-69
2022/09/08 07:28:37;;;;;;;5.35;3.60;;;27.00;46.90;;;;;;4951819;29;20040;-69
2022/09/08 07:31:05;;;;;;;5.63;3.45;;;27.10;46.90;;;;;;4951393;29;20039;-68
2022/09/08 07:33:37;;;;;;;5.65;3.55;;;26.90;46.30;;;;;;4951557;29;20098;-69
2022/09/08 07:36:12;;;;;;;;;;;26.90;46.30;;;;;;4951853;29;20070;-70
2022/09/08 07:38:52;;;;;;;3.42;3.10;;;26.90;46.30;;;;;;4967441;28;20311;-69
2022/09/08 07:41:40;;;;;;;6.63;3.35;;;26.90;46.00;;;;;;4973625;28;20392;-70
2022/09/08 07:44:14;;;;;;;7.03;3.33;;;26.90;46.10;;;;;;4990032;28;20034;-70
2022/09/08 07:46:43;;;;;;;6.15;3.20;;;26.90;46.20;;;;;;4990147;28;20034;-70
2022/09/08 07:49:29;;;;;;;6.72;3.80;;;26.90;46.40;;;;;;5004330;28;20125;-70
2022/09/08 07:52:06;;;;;;;4.72;3.13;;;26.80;46.50;;;;;;5011909;28;20534;-69
2022/09/08 07:54:47;;;;;;;5.95;3.15;;;27.00;47.10;;;;;;5016471;28;20038;-71
2022/09/08 07:57:38;;;;;;;8.48;3.72;;;26.80;46.70;;;;;;5026085;28;20046;-69
2022/09/08 08:00:57;;;;;;;4.68;2.90;;;27.00;47.20;;;;;;5028740;28;20175;-70
2022/09/08 08:03:39;;;;;;;4.18;3.20;;;26.80;46.40;;;;;;4989873;28;20408;-72
2022/09/08 08:06:19;;;;;;;6.55;2.85;;;26.90;46.60;;;;;;4989782;28;20073;-72
2022/09/08 08:09:04;;;;;;;3.00;2.70;;;27.00;47.20;;;;;;4989894;28;20054;-72
2022/09/08 08:11:41;;;;;;;4.20;3.15;;;26.80;46.60;;;;;;4978461;28;20042;-72
2022/09/08 08:14:25;;;;;;;3.15;1.85;;;26.90;46.60;;;;;;4970164;28;20499;-70
2022/09/08 08:17:13;;;;;;;5.43;3.15;;;26.90;46.60;;;;;;4970308;28;20514;-73
2022/09/08 08:20:01;;;;;;;5.22;2.58;;;27.00;47.30;;;;;;4970209;28;20038;-72
2022/09/08 08:22:47;;;;;;;3.65;2.50;;;27.00;47.40;;;;;;4937992;28;20133;-70
2022/09/08 08:25:29;;;;;;;3.17;2.35;;;26.90;47.00;;;;;;4970342;28;20043;-72
2022/09/08 08:28:18;;;;;;;2.63;1.92;;;26.90;47.00;;;;;;4966814;28;20144;-73
2022/09/08 08:30:54;;;;;;;2.50;2.30;;;27.00;47.60;;;;;;4951895;28;20536;-72
2022/09/08 08:33:25;;;;;;;3.30;2.63;;;27.00;47.20;;;;;;4982186;28;20498;-71
2022/09/08 08:36:00;;;;;;;4.05;2.20;;;27.00;47.30;;;;;;5010448;28;20030;-73
2022/09/08 08:38:33;;;;;;;2.47;2.25;;;27.00;47.20;;;;;;5011011;28;20391;-72
2022/09/08 08:41:01;;;;;;;2.55;2.10;;;26.80;46.20;;;;;;5010021;28;20105;-71
2022/09/08 08:43:55;;;;;;;2.50;2.15;;;26.90;46.10;;;;;;5010463;28;20534;-71
2022/09/08 08:46:44;;;;;;;3.58;2.65;;;26.80;46.40;;;;;;5009193;28;20057;-72
2022/09/08 08:49:19;;;;;;;2.65;2.45;;;26.80;47.20;;;;;;5002596;28;20039;-69
2022/09/08 08:52:10;;;;;;;4.40;2.63;;;27.00;51.40;;;;;;5006888;28;20137;-70
2022/09/08 08:55:06;;;;;;;5.65;4.80;;;27.40;54.20;;;;;;4990928;28;20039;-73
2022/09/08 08:57:55;;;;;;;3.17;2.35;;;27.50;47.90;;;;;;5002097;28;20038;-71
2022/09/08 09:00:36;;;;;;;3.10;2.67;;;27.50;46.80;;;;;;5010052;28;20292;-71
2022/09/08 09:03:05;;;;;;;2.60;2.40;;;27.30;46.20;;;;;;5009152;28;20031;-71
2022/09/08 09:05:49;;;;;;;3.25;2.67;;;27.30;45.90;;;;;;5009644;28;20552;-70
2022/09/08 09:08:34;;;;;;;2.80;2.53;;;27.30;45.40;;;;;;5009933;28;20046;-70
2022/09/08 09:11:03;;;;;;;1.80;1.40;;;27.20;45.90;;;;;;5013914;28;20065;-74
2022/09/08 09:13:44;;;;;;;1.00;1.00;;;27.30;47.80;;;;;;5014009;28;20530;-72
2022/09/08 09:16:37;;;;;;;2.03;1.63;;;27.20;48.30;;;;;;5013750;28;20033;-72
2022/09/08 09:19:47;;;;;;;9.90;3.10;;;27.40;49.00;;;;;;5012475;28;20100;-72
2022/09/08 09:22:40;;;;;;;19.67;1.98;;;27.40;49.60;;;;;;5034791;28;20103;-70
2022/09/08 09:25:33;;;;;;;1.73;1.63;;;27.50;49.20;;;;;;5014871;28;20042;-72
2022/09/08 09:28:29;;;;;;;1.42;1.35;;;27.60;51.20;;;;;;5014847;28;20042;-70
2022/09/08 09:31:16;;;;;;;3.45;2.88;;;27.60;50.00;;;;;;4992457;28;20092;-69
2022/09/08 09:34:15;;;;;;;3.55;2.38;;;27.60;47.40;;;;;;4992288;28;20434;-70
2022/09/08 09:37:08;;;;;;;2.90;2.58;;;27.50;46.30;;;;;;4992258;28;20038;-70
2022/09/08 09:39:34;;;;;;;3.55;2.50;;;27.40;46.60;;;;;;4992900;28;20038;-72
2022/09/08 09:42:39;;;;;;;2.53;2.33;;;27.60;46.50;;;;;;4992003;28;20065;-72
2022/09/08 09:45:29;;;;;;;2.63;2.03;;;27.50;46.50;;;;;;4915347;29;20048;-70
2022/09/08 09:48:19;;;;;;;6.53;2.45;;;27.40;47.00;;;;;;4929952;29;20445;-71
2022/09/08 09:51:00;;;;;;;3.40;2.78;;;27.40;46.70;;;;;;4897646;29;20087;-71
2022/09/08 09:54:00;;;;;;;2.85;2.60;;;27.50;47.00;;;;;;4896888;29;20037;-71
2022/09/08 09:56:39;;;;;;;3.30;2.42;;;27.50;46.40;;;;;;4896430;29;20314;-70
2022/09/08 09:59:35;;;;;;;3.63;2.50;;;27.40;47.30;;;;;;4914359;29;20079;-71
2022/09/08 10:02:23;;;;;;;2.30;2.10;;;27.40;47.80;;;;;;4930769;29;20044;-70
2022/09/08 10:05:12;;;;;;;5.35;2.03;;;27.40;48.00;;;;;;4914956;29;20359;-71
2022/09/08 10:08:15;;;;;;;2.63;2.15;;;27.50;48.20;;;;;;4918142;29;20039;-68
2022/09/08 10:11:06;;;;;;;;;;;27.50;47.70;;;;;;4919755;29;20123;-69
2022/09/08 10:14:13;;;;;;;1.33;1.23;;;27.70;49.80;;;;;;4934449;28;19918;-70
2022/09/08 10:16:58;;;;;;;3.95;2.20;;;28.10;53.50;;;;;;4930670;29;20441;-68
2022/09/08 10:19:54;;;;;;;3.22;2.92;;;28.10;51.10;;;;;;4906796;29;20054;-69
2022/09/08 10:22:57;;;;;;;3.25;2.63;;;28.00;50.00;;;;;;4956823;28;20482;-70
2022/09/08 10:25:35;;;;;;;1.98;1.85;;;28.00;48.90;;;;;;4973883;28;20030;-72
2022/09/08 10:28:13;;;;;;;1.98;1.70;;;27.80;47.90;;;;;;4979957;28;20085;-70
2022/09/08 10:31:06;;;;;;;0.60;0.60;;;27.70;47.30;;;;;;4980957;28;20701;-69
2022/09/08 10:34:00;;;;;;;3.20;1.20;;;27.80;46.90;;;;;;4942147;28;20046;-70
2022/09/08 10:36:40;;;;;;;2.47;2.28;;;28.00;50.50;;;;;;4979703;28;20069;-69
2022/09/08 10:39:19;;;;;;;1.13;1.10;;;28.20;53.80;;;;;;4971757;28;20415;-71
2022/09/08 10:42:07;;;;;;;3.97;2.88;;;28.50;52.90;;;;;;4973353;28;20539;-71
2022/09/08 10:44:59;;;;;;;7.40;3.20;;;28.60;50.00;;;;;;4991207;28;20428;-70
2022/09/08 10:47:53;;;;;;;2.33;2.17;;;28.40;49.20;;;;;;4980630;28;20129;-70
2022/09/08 10:50:21;;;;;;;3.00;2.28;;;28.20;47.60;;;;;;4988581;28;20049;-71
2022/09/08 10:52:50;;;;;;;2.92;2.63;;;28.20;47.20;;;;;;5008134;28;20382;-70
2022/09/08 10:55:50;;;;;;;2.55;2.20;;;28.10;46.90;;;;;;5013209;28;20045;-70
2022/09/08 10:58:25;;;;;;;3.22;2.42;;;28.10;46.50;;;;;;5012269;28;20154;-70
2022/09/08 11:00:57;;;;;;;3.97;2.70;;;28.10;46.90;;;;;;5012639;28;20036;-69
2022/09/08 11:03:42;;;;;;;2.38;2.17;;;28.10;45.90;;;;;;5012949;28;20038;-72
2022/09/08 11:06:22;;;;;;;2.50;2.10;;;28.00;46.40;;;;;;5012827;28;20052;-71
2022/09/08 11:09:16;;;;;;;3.05;2.22;;;28.00;46.10;;;;;;5012039;28;20057;-71
2022/09/08 11:12:08;;;;;;;3.13;2.00;;;28.10;46.20;;;;;;5012584;28;20521;-71
2022/09/08 11:15:11;;;;;;;5.03;2.10;;;27.90;46.40;;;;;;4990193;28;20538;-71
2022/09/08 11:17:49;;;;;;;3.80;2.15;;;28.00;47.10;;;;;;4990267;28;20038;-71
2022/09/08 11:20:51;;;;;;;2.72;2.33;;;28.10;46.90;;;;;;4988302;28;20704;-72
2022/09/08 11:23:41;;;;;;;5.10;2.15;;;28.00;47.00;;;;;;4990162;28;20042;-72
2022/09/08 11:26:52;;;;;;;3.38;2.13;;;27.90;46.40;;;;;;4957506;28;20121;-71
2022/09/08 11:29:19;;;;;;;2.25;2.03;;;27.90;46.40;;;;;;4899936;29;20107;-71
2022/09/08 11:32:11;;;;;;;2.92;2.63;;;28.00;47.00;;;;;;4934061;29;20072;-72
2022/09/08 11:34:55;;;;;;;3.90;1.90;;;27.90;46.50;;;;;;4935347;29;20134;-72
2022/09/08 11:38:04;;;;;;;2.65;1.85;;;27.90;46.60;;;;;;4944066;28;20494;-72
2022/09/08 11:40:53;;;;;;;4.05;2.30;;;28.10;47.10;;;;;;4932217;29;20040;-71
2022/09/08 11:43:28;;;;;;;2.67;2.03;;;27.90;46.60;;;;;;4894492;29;20042;-71
2022/09/08 11:46:27;;;;;;;3.08;2.00;;;27.80;46.20;;;;;;4925480;29;20535;-71
2022/09/08 11:49:23;;;;;;;1.58;1.48;;;27.80;46.60;;;;;;4893506;29;20044;-70
2022/09/08 11:52:10;;;;;;;2.20;1.83;;;27.90;46.70;;;;;;4899883;29;20052;-71
2022/09/08 11:54:54;;;;;;;2.28;2.00;;;27.90;46.30;;;;;;4931464;29;20212;-70
2022/09/08 11:57:42;;;;;;;1.98;1.83;;;27.90;46.40;;;;;;4915165;29;20493;-74
2022/09/08 12:00:18;;;;;;;2.33;2.13;;;27.80;46.30;;;;;;4931305;29;20115;-70
2022/09/08 12:03:25;;;;;;;2.70;1.65;;;27.90;46.50;;;;;;4931158;29;20098;-70
2022/09/08 12:06:29;;;;;;;3.75;2.17;;;27.80;46.60;;;;;;4893830;29;20036;-71
2022/09/08 12:09:17;;;;;;;;;;;27.90;44.60;;;;;;4913129;29;21542;-71
2022/09/08 12:12:10;;;;;;;1.92;1.80;;;27.90;45.70;;;;;;4912820;29;20324;-70
2022/09/08 12:15:00;;;;;;;2.00;1.77;;;27.70;46.90;;;;;;4912763;29;20478;-71
2022/09/08 12:17:59;;;;;;;3.47;2.05;;;27.90;47.10;;;;;;4912853;29;20070;-71
2022/09/08 12:20:37;;;;;;;6.35;2.30;;;27.80;47.00;;;;;;4943451;28;20066;-69
2022/09/08 12:23:22;;;;;;;2.35;2.15;;;27.90;47.10;;;;;;4969513;28;20047;-70
2022/09/08 12:25:59;;;;;;;2.00;1.90;;;27.80;45.90;;;;;;4953544;28;20488;-70
2022/09/08 12:29:19;;;;;;;3.45;2.13;;;27.70;47.40;;;;;;4953825;28;20085;-71
2022/09/08 12:31:51;;;;;;;2.15;1.95;;;27.70;47.40;;;;;;4912659;29;20083;-70
2022/09/08 12:35:00;;;;;;;2.22;2.03;;;27.80;47.50;;;;;;4902463;29;20114;-70
2022/09/08 12:38:03;;;;;;;3.22;2.08;;;27.70;47.60;;;;;;4873347;29;20630;-69
2022/09/08 12:40:50;;;;;;;3.38;2.13;;;27.80;47.50;;;;;;4870879;29;20047;-69
2022/09/08 12:43:22;;;;;;;3.47;2.00;;;27.70;47.50;;;;;;4863324;29;20120;-69
2022/09/08 12:46:29;;;;;;;3.70;1.70;;;27.70;47.60;;;;;;4873243;29;20041;-70
2022/09/08 12:49:19;;;;;;;4.60;2.35;;;27.60;47.80;;;;;;4874701;29;20045;-70
2022/09/08 12:52:15;;;;;;;2.20;1.98;;;27.70;47.50;;;;;;4861938;29;20169;-72
2022/09/08 12:55:19;;;;;;;4.10;2.00;;;27.60;47.50;;;;;;4837049;29;20155;-71
2022/09/08 12:57:55;;;;;;;3.17;2.20;;;27.70;47.20;;;;;;4779386;30;20047;-69
2022/09/08 13:00:29;;;;;;;2.20;2.00;;;27.70;47.00;;;;;;4782574;30;20059;-67
2022/09/08 13:03:18;;;;;;;3.17;1.95;;;27.60;47.50;;;;;;4767321;30;20104;-69
2022/09/08 13:05:44;;;;;;;4.05;2.13;;;27.70;47.70;;;;;;4795604;29;20116;-70
2022/09/08 13:08:16;;;;;;;2.40;2.15;;;27.70;47.60;;;;;;4814344;29;20070;-70
2022/09/08 13:10:45;;;;;;;2.78;2.40;;;27.80;47.60;;;;;;4818046;29;20039;-69
2022/09/08 13:13:34;;;;;;;2.60;1.95;;;27.70;46.10;;;;;;4822395;29;20726;-69
2022/09/08 13:16:24;;;;;;;2.65;2.22;;;27.70;45.50;;;;;;4852966;29;20041;-69
2022/09/08 13:19:27;;;;;;;2.75;2.15;;;27.90;45.60;;;;;;4855778;29;20033;-69
2022/09/08 13:22:25;;;;;;;2.17;1.70;;;27.80;46.40;;;;;;4855976;29;20146;-67
2022/09/08 13:25:15;;;;;;;3.13;2.17;;;27.90;46.90;;;;;;4855935;29;20041;-69
2022/09/08 13:27:54;;;;;;;1.70;1.60;;;27.80;46.20;;;;;;4855824;29;20146;-69
2022/09/08 13:30:28;;;;;;;2.50;2.22;;;27.80;46.10;;;;;;4855566;29;20073;-69
2022/09/08 13:33:00;;;;;;;2.85;1.88;;;27.80;46.00;;;;;;4950009;29;20035;-69
2022/09/08 13:35:50;;;;;;;3.30;1.77;;;27.80;46.50;;;;;;5002511;28;20121;-69
2022/09/08 13:38:35;;;;;;;1.98;1.77;;;27.80;47.00;;;;;;5010145;28;20030;-69
2022/09/08 13:41:04;;;;;;;4.28;2.25;;;27.90;47.00;;;;;;5011455;28;20037;-68